Capitol Logistics 7358

Operating for MZN



KTPA
Tampa International Airport
Tampa, Florida
KORD
Chicago O'Hare International Airport
Chicago, Illinois

Activity Log

Date Flight Route Aircraft Duration
No Flights Yet

Route Details

Aircraft Information
Primary: Boeing 737-800BCF
Backup: Boeing 757-200SF
Route Data
Distance: 889nm
Duration: 2h 24m
Recm'd Route: ENDED8 LACEN BRUTS Q118 HEVAN BONNT VEECK5
Origin Wx: KTPA 180248Z 22007KT 8SM BKN011 25/22 A2990 RMK AO2
Dest. Wx: KORD 180251Z 06005KT 10SM FEW250 06/M06 A2997 RMK AO2 SLP151 T00611056 51010 $
Notes: